Greenbrier, Tennessee
Current Conditions -  °F | °C
As of 8:55 PM on Thursday 27 Nov 2014 (Local Time) from KM91 Reporting Station
Few Clouds Few Clouds  
Wind Chill: 27°   Ceiling: Unl
Heat Index: 27°   Visibility: 10mi
Dew Point: 21°   Wind: 3mph
Humidity: 80%   Direction: 10°N
Pressure: 30.48"   Gusts: NA
Location:  36.43°N, 86.8°W
Report Text: KM91 280255Z AUTO 01003KT 10SM FEW037 M03/M06 A3048 RMK
Loading
Personal Weather Stations






























Interactive Weather Map New forecast layout! Learn more

10-Day Weather Forecast

Advertisements
Track Severe Weather on mobile